Time;durP1;ratioP1;P1;durP2;ratioP2;P2;SDS_P1;SDS_P2;PMS_P1;PMS_P2;Temp;Humidity;BMP_temperature;BMP_pressure;BME280_temperature;BME280_humidity;BME280_pressure;Samples;Min_cycle;Max_cycle;Signal;HPM_P1;HPM_P2
2022/05/18 00:01:00;;;;;;;1.67;1.30;;;22.20;99.90;;;;;;5037582;28;20196;-64
2022/05/18 00:03:37;;;;;;;1.83;1.30;;;22.20;99.90;;;;;;5045089;28;20227;-66
2022/05/18 00:06:04;;;;;;;2.20;1.20;;;22.20;99.90;;;;;;5042382;28;20184;-64
2022/05/18 00:08:37;;;;;;;1.95;1.50;;;22.10;99.90;;;;;;5050244;28;20240;-64
2022/05/18 00:11:06;;;;;;;1.73;1.30;;;22.10;99.90;;;;;;5029738;28;20188;-64
2022/05/18 00:13:34;;;;;;;2.30;1.40;;;22.20;99.90;;;;;;5039734;28;20231;-64
2022/05/18 00:16:00;;;;;;;2.63;1.48;;;22.20;99.90;;;;;;5033146;28;20211;-64
2022/05/18 00:18:25;;;;;;;3.78;1.60;;;22.10;99.90;;;;;;5035839;28;20174;-64
2022/05/18 00:20:56;;;;;;;1.70;1.30;;;22.10;99.90;;;;;;5051037;28;20189;-64
2022/05/18 00:23:21;;;;;;;1.80;1.40;;;22.10;99.90;;;;;;5035948;28;20257;-64
2022/05/18 00:25:49;;;;;;;2.13;1.27;;;22.10;99.90;;;;;;5036528;28;20295;-65
2022/05/18 00:28:15;;;;;;;4.22;1.30;;;22.10;99.90;;;;;;5041250;28;20228;-64
2022/05/18 00:30:43;;;;;;;2.75;1.50;;;22.00;99.90;;;;;;5030692;28;20174;-64
2022/05/18 00:33:13;;;;;;;1.95;1.45;;;22.00;99.90;;;;;;5033110;28;20512;-65
2022/05/18 00:35:45;;;;;;;1.95;1.40;;;22.00;99.90;;;;;;5017116;28;20267;-65
2022/05/18 00:38:11;;;;;;;3.22;1.50;;;22.00;99.90;;;;;;5036368;28;20177;-65
2022/05/18 00:40:43;;;;;;;1.90;1.27;;;22.00;99.90;;;;;;5034783;28;20165;-65
2022/05/18 00:43:38;;;;;;;2.15;1.50;;;22.00;99.90;;;;;;5036283;28;20265;-65
2022/05/18 00:46:08;;;;;;;2.35;1.40;;;22.00;99.90;;;;;;5026054;28;20269;-64
2022/05/18 00:48:33;;;;;;;3.20;1.95;;;21.90;99.90;;;;;;5032448;28;20213;-64
2022/05/18 00:51:05;;;;;;;3.22;1.80;;;21.90;99.90;;;;;;5035880;28;20185;-64
2022/05/18 00:53:37;;;;;;;1.35;1.25;;;21.90;99.90;;;;;;5043825;28;20191;-65
2022/05/18 00:56:10;;;;;;;4.05;1.70;;;21.90;99.90;;;;;;5041912;28;20196;-64
2022/05/18 00:58:54;;;;;;;3.13;1.70;;;21.90;99.90;;;;;;5035648;28;20220;-64
2022/05/18 01:01:22;;;;;;;3.13;1.70;;;21.90;99.90;;;;;;5035920;28;20203;-65
2022/05/18 01:03:51;;;;;;;2.97;1.50;;;21.80;99.90;;;;;;5034156;28;20170;-64
2022/05/18 01:06:23;;;;;;;2.70;1.60;;;21.80;99.90;;;;;;5044935;28;20177;-65
2022/05/18 01:09:15;;;;;;;1.83;1.40;;;21.80;99.90;;;;;;5036494;28;20268;-64
2022/05/18 01:11:41;;;;;;;2.10;1.65;;;21.80;99.90;;;;;;5037952;28;20250;-64
2022/05/18 01:14:22;;;;;;;1.90;1.30;;;21.70;99.90;;;;;;5033845;28;20193;-64
2022/05/18 01:16:51;;;;;;;3.50;1.80;;;21.70;99.90;;;;;;5030413;28;20202;-65
2022/05/18 01:19:39;;;;;;;2.05;1.55;;;21.70;99.90;;;;;;5023441;28;20174;-65
2022/05/18 01:22:29;;;;;;;2.90;1.70;;;21.70;99.90;;;;;;5053811;28;20161;-64
2022/05/18 01:25:03;;;;;;;2.25;1.40;;;21.70;99.90;;;;;;5035022;28;20213;-64
2022/05/18 01:27:31;;;;;;;2.47;1.50;;;21.70;99.90;;;;;;5049464;28;20213;-64
2022/05/18 01:29:59;;;;;;;2.72;1.40;;;21.70;99.90;;;;;;5029801;28;20202;-64
2022/05/18 01:32:25;;;;;;;1.40;1.30;;;21.70;99.90;;;;;;5022768;28;20479;-65
2022/05/18 01:34:53;;;;;;;3.40;1.85;;;21.70;99.90;;;;;;5032299;28;20413;-64
2022/05/18 01:37:21;;;;;;;1.98;1.30;;;21.70;99.90;;;;;;5034825;28;20255;-65
2022/05/18 01:39:58;;;;;;;2.65;1.40;;;21.70;99.90;;;;;;5017991;28;20445;-65
2022/05/18 01:42:32;;;;;;;1.60;1.30;;;21.70;99.90;;;;;;5028551;28;20196;-63
2022/05/18 01:45:00;;;;;;;3.40;1.50;;;21.70;99.90;;;;;;5038574;28;20317;-64
2022/05/18 01:47:34;;;;;;;2.25;1.55;;;21.70;99.90;;;;;;5037201;28;20255;-64
2022/05/18 01:50:04;;;;;;;2.47;1.45;;;21.60;99.90;;;;;;5035278;28;20177;-65
2022/05/18 01:52:35;;;;;;;3.88;1.50;;;21.60;99.90;;;;;;5036156;28;20177;-64
2022/05/18 01:55:01;;;;;;;3.08;1.70;;;21.60;99.90;;;;;;5035209;28;20212;-65
2022/05/18 01:57:26;;;;;;;2.65;1.50;;;21.60;99.90;;;;;;5024930;28;20286;-64
2022/05/18 01:59:52;;;;;;;2.60;1.38;;;21.60;99.90;;;;;;5034614;28;20189;-64
2022/05/18 02:02:18;;;;;;;4.22;1.80;;;21.50;99.90;;;;;;5033770;28;20210;-64
2022/05/18 02:04:46;;;;;;;2.53;1.45;;;21.50;99.90;;;;;;5035452;28;20273;-64
2022/05/18 02:07:15;;;;;;;1.83;1.38;;;21.50;99.90;;;;;;5035134;28;20174;-64
2022/05/18 02:09:41;;;;;;;2.45;1.40;;;21.50;99.90;;;;;;5031588;28;20458;-65
2022/05/18 02:12:09;;;;;;;3.38;1.58;;;21.50;99.90;;;;;;5034234;28;20205;-64
2022/05/18 02:14:37;;;;;;;1.75;1.30;;;21.40;99.90;;;;;;5028578;28;20205;-65
2022/05/18 02:17:07;;;;;;;1.75;1.40;;;21.40;99.90;;;;;;5035385;28;20197;-64
2022/05/18 02:19:33;;;;;;;2.08;1.38;;;21.40;99.90;;;;;;5038533;28;20667;-64
2022/05/18 02:22:00;;;;;;;1.80;1.38;;;21.40;99.90;;;;;;5034067;28;20275;-65
2022/05/18 02:24:25;;;;;;;1.75;1.50;;;21.30;99.90;;;;;;5035134;28;20276;-65
2022/05/18 02:26:53;;;;;;;1.73;1.30;;;21.30;99.90;;;;;;5030885;28;20285;-64
2022/05/18 02:29:19;;;;;;;4.03;1.60;;;21.30;99.90;;;;;;5037187;28;20296;-65
2022/05/18 02:31:45;;;;;;;2.47;1.60;;;21.30;99.90;;;;;;5040402;28;20173;-64
2022/05/18 02:34:10;;;;;;;3.40;1.80;;;21.20;99.90;;;;;;5042819;28;20258;-65
2022/05/18 02:36:36;;;;;;;2.58;1.40;;;21.20;99.90;;;;;;5035475;28;20212;-64
2022/05/18 02:39:04;;;;;;;2.03;1.30;;;21.20;99.90;;;;;;5040587;28;20188;-64
2022/05/18 02:41:30;;;;;;;3.63;1.40;;;21.10;99.90;;;;;;5029639;28;20427;-64
2022/05/18 02:43:55;;;;;;;2.78;1.50;;;21.10;99.90;;;;;;5037268;28;20183;-64
2022/05/18 02:46:24;;;;;;;2.65;1.50;;;21.00;99.90;;;;;;5036103;28;20235;-65
2022/05/18 02:48:55;;;;;;;1.50;1.27;;;21.00;99.90;;;;;;5034834;28;20276;-65
2022/05/18 02:51:23;;;;;;;2.30;1.40;;;21.00;99.90;;;;;;5034621;28;20180;-65
2022/05/18 02:53:49;;;;;;;3.10;1.55;;;20.90;99.90;;;;;;5043491;28;20180;-64
2022/05/18 02:56:23;;;;;;;1.77;1.60;;;20.90;99.90;;;;;;5038513;28;20201;-65
2022/05/18 02:58:50;;;;;;;2.35;1.40;;;20.90;99.90;;;;;;5050724;28;20311;-64
2022/05/18 03:01:22;;;;;;;2.80;1.70;;;20.90;99.90;;;;;;5038240;28;20265;-64
2022/05/18 03:03:53;;;;;;;3.63;1.80;;;20.90;99.90;;;;;;5038626;28;20188;-64
2022/05/18 03:06:21;;;;;;;2.10;1.52;;;20.90;99.90;;;;;;5040503;28;20201;-65
2022/05/18 03:08:50;;;;;;;2.65;1.80;;;20.90;99.90;;;;;;5028213;28;20177;-65
2022/05/18 03:11:16;;;;;;;2.65;1.70;;;20.80;99.90;;;;;;5036751;28;20173;-65
2022/05/18 03:13:44;;;;;;;1.98;1.63;;;20.80;99.90;;;;;;5038319;28;20185;-65
2022/05/18 03:16:10;;;;;;;3.22;1.60;;;20.80;99.90;;;;;;5038958;28;20205;-64
2022/05/18 03:18:38;;;;;;;2.45;1.50;;;20.80;99.90;;;;;;5039091;28;20207;-64
2022/05/18 03:23:51;;;;;;;3.30;1.67;;;20.70;99.90;;;;;;5043101;28;20184;-65
2022/05/18 03:26:22;;;;;;;2.60;1.80;;;20.70;99.90;;;;;;5039082;28;20295;-65
2022/05/18 03:28:55;;;;;;;2.83;2.13;;;20.70;99.90;;;;;;5037624;28;20247;-64
2022/05/18 03:31:23;;;;;;;3.25;1.77;;;20.60;99.90;;;;;;5040360;28;20211;-65
2022/05/18 03:33:55;;;;;;;4.47;3.20;;;20.60;99.90;;;;;;5036770;28;20278;-65
2022/05/18 03:36:23;;;;;;;4.25;2.53;;;20.60;99.90;;;;;;5037608;28;20197;-64
2022/05/18 03:38:52;;;;;;;3.00;2.22;;;20.50;99.90;;;;;;5037694;28;20197;-65
2022/05/18 03:41:18;;;;;;;3.00;1.92;;;20.60;99.90;;;;;;5048630;28;20181;-65
2022/05/18 03:43:44;;;;;;;2.83;2.20;;;20.50;99.90;;;;;;5054078;28;20188;-63
2022/05/18 03:46:13;;;;;;;2.58;1.80;;;20.50;99.90;;;;;;5037676;28;20181;-65
2022/05/18 03:48:44;;;;;;;3.80;1.80;;;20.50;99.90;;;;;;5037896;28;20251;-65
2022/05/18 03:51:13;;;;;;;6.55;3.95;;;20.40;99.90;;;;;;5037555;28;20197;-65
2022/05/18 03:53:42;;;;;;;4.38;3.80;;;20.40;99.90;;;;;;5055341;28;20169;-65
2022/05/18 03:56:08;;;;;;;3.70;2.65;;;20.40;99.90;;;;;;5037630;28;20287;-64
2022/05/18 03:58:34;;;;;;;3.83;2.17;;;20.40;99.90;;;;;;5053490;28;20235;-64
2022/05/18 04:01:08;;;;;;;6.57;2.20;;;20.40;99.90;;;;;;5052320;28;20227;-65
2022/05/18 04:03:41;;;;;;;2.63;1.77;;;20.40;99.90;;;;;;5039960;28;20194;-66
2022/05/18 04:06:07;;;;;;;2.50;1.73;;;20.40;99.90;;;;;;5038075;28;20180;-65
2022/05/18 04:08:38;;;;;;;3.25;2.35;;;20.40;99.90;;;;;;5037809;28;20189;-65
2022/05/18 04:11:06;;;;;;;2.22;1.50;;;20.40;99.90;;;;;;5037807;28;20223;-65
2022/05/18 04:13:34;;;;;;;3.03;1.63;;;20.50;99.90;;;;;;5039888;28;20272;-64
2022/05/18 04:16:00;;;;;;;3.42;1.88;;;20.50;99.90;;;;;;5036690;28;20204;-64
2022/05/18 04:18:26;;;;;;;4.40;1.90;;;20.50;99.90;;;;;;5036990;28;20320;-64
2022/05/18 04:20:53;;;;;;;3.15;1.88;;;20.50;99.90;;;;;;5037499;28;20181;-64
2022/05/18 04:23:20;;;;;;;4.47;2.00;;;20.50;99.90;;;;;;5034021;28;20170;-64
2022/05/18 04:25:46;;;;;;;6.97;4.70;;;20.50;99.90;;;;;;5037321;28;20216;-69
2022/05/18 04:28:15;;;;;;;4.50;2.60;;;20.60;99.90;;;;;;5036227;28;20185;-68
2022/05/18 04:30:43;;;;;;;2.60;2.05;;;20.60;99.90;;;;;;5036831;28;20177;-68
2022/05/18 04:33:18;;;;;;;3.05;1.92;;;20.60;99.90;;;;;;5027947;28;20170;-68
2022/05/18 04:35:44;;;;;;;3.25;2.20;;;20.70;99.90;;;;;;5037162;28;20238;-68
2022/05/18 04:38:10;;;;;;;2.92;1.90;;;20.70;99.90;;;;;;5036935;28;20209;-67
2022/05/18 04:40:37;;;;;;;2.53;1.95;;;20.70;99.90;;;;;;5036561;28;20184;-68
2022/05/18 04:43:03;;;;;;;2.70;1.70;;;20.80;99.90;;;;;;5034868;28;20268;-68
2022/05/18 04:45:29;;;;;;;4.80;1.73;;;20.80;99.90;;;;;;5035319;28;20277;-68
2022/05/18 04:47:56;;;;;;;4.35;2.33;;;20.80;99.90;;;;;;5034652;28;20197;-68
2022/05/18 04:50:25;;;;;;;3.03;2.35;;;20.90;99.90;;;;;;5054436;28;20256;-68
2022/05/18 04:52:51;;;;;;;2.83;1.85;;;20.90;99.90;;;;;;5037983;28;20205;-68
2022/05/18 04:55:16;;;;;;;3.10;1.70;;;21.00;99.90;;;;;;5041706;28;20217;-68
2022/05/18 04:57:45;;;;;;;2.20;1.88;;;21.00;99.90;;;;;;5036515;28;20244;-68
2022/05/18 05:00:15;;;;;;;4.15;2.10;;;21.00;99.90;;;;;;5052675;28;20173;-69
2022/05/18 05:02:41;;;;;;;2.50;1.70;;;21.10;99.90;;;;;;5033509;28;20189;-66
2022/05/18 05:05:11;;;;;;;2.58;1.60;;;21.10;99.90;;;;;;5035976;28;20204;-68
2022/05/18 05:07:37;;;;;;;2.90;1.83;;;21.10;99.90;;;;;;5035781;28;20233;-68
2022/05/18 05:10:04;;;;;;;4.20;2.13;;;21.10;99.90;;;;;;5036591;28;20284;-68
2022/05/18 05:12:30;;;;;;;3.63;1.83;;;21.20;99.90;;;;;;5033986;28;20184;-67
2022/05/18 05:14:55;;;;;;;1.90;1.60;;;21.20;99.90;;;;;;5041143;28;20181;-64
2022/05/18 05:17:25;;;;;;;2.42;1.80;;;21.20;99.90;;;;;;5031993;28;20209;-68
2022/05/18 05:19:56;;;;;;;2.85;1.85;;;21.20;99.90;;;;;;5034787;28;20172;-68
2022/05/18 05:22:21;;;;;;;2.67;1.90;;;21.20;99.90;;;;;;5040231;28;20187;-68
2022/05/18 05:24:47;;;;;;;5.00;1.98;;;21.20;99.90;;;;;;5043515;28;20205;-68
2022/05/18 05:27:12;;;;;;;2.75;1.85;;;21.30;99.90;;;;;;5025450;28;20189;-68
2022/05/18 05:29:39;;;;;;;2.13;1.70;;;21.30;99.90;;;;;;5034897;28;20258;-67
2022/05/18 05:32:07;;;;;;;2.65;1.80;;;21.30;99.90;;;;;;5031028;28;20181;-67
2022/05/18 05:34:33;;;;;;;2.30;1.90;;;21.30;99.90;;;;;;5025528;28;20308;-67
2022/05/18 05:37:01;;;;;;;2.10;1.63;;;21.30;99.90;;;;;;5037555;28;20201;-65
2022/05/18 05:39:26;;;;;;;4.22;1.75;;;21.30;99.90;;;;;;5040967;28;20200;-68
2022/05/18 05:41:57;;;;;;;2.33;1.67;;;21.40;99.90;;;;;;5038566;28;20196;-68
2022/05/18 05:44:25;;;;;;;2.05;1.52;;;21.40;99.90;;;;;;5056162;28;20288;-68
2022/05/18 05:46:50;;;;;;;2.75;1.90;;;21.40;99.90;;;;;;5035122;28;20188;-68
2022/05/18 05:49:21;;;;;;;3.42;1.90;;;21.40;99.90;;;;;;5033572;28;20252;-68
2022/05/18 05:51:47;;;;;;;2.90;2.20;;;21.50;99.90;;;;;;5036541;28;20157;-64
2022/05/18 05:54:14;;;;;;;2.45;1.90;;;21.50;99.90;;;;;;5035382;28;20361;-65
2022/05/18 05:56:42;;;;;;;2.42;1.83;;;21.50;99.90;;;;;;5031928;28;20205;-66
2022/05/18 05:59:08;;;;;;;2.72;1.95;;;21.50;99.90;;;;;;5037098;28;20178;-65
2022/05/18 06:01:33;;;;;;;2.92;2.05;;;21.50;99.90;;;;;;5035792;28;20261;-62
2022/05/18 06:04:07;;;;;;;2.50;1.83;;;21.60;99.90;;;;;;5027727;28;20197;-65
2022/05/18 06:06:35;;;;;;;2.38;1.70;;;21.60;99.90;;;;;;5026206;28;20192;-66
2022/05/18 06:09:07;;;;;;;4.43;2.03;;;21.60;99.90;;;;;;5031970;28;20189;-65
2022/05/18 06:11:34;;;;;;;2.85;2.10;;;21.70;99.90;;;;;;5037313;28;20228;-64
2022/05/18 06:14:03;;;;;;;2.47;1.80;;;21.70;99.90;;;;;;5051833;28;20242;-66
2022/05/18 06:16:31;;;;;;;3.55;2.10;;;21.80;99.90;;;;;;5031902;28;20267;-63
2022/05/18 06:18:59;;;;;;;2.83;1.83;;;21.90;99.90;;;;;;5039054;28;20178;-64
2022/05/18 06:21:26;;;;;;;3.30;1.90;;;21.90;99.90;;;;;;5028821;28;20240;-68
2022/05/18 06:23:51;;;;;;;2.90;2.05;;;22.00;99.90;;;;;;5038201;28;20208;-68
2022/05/18 06:26:17;;;;;;;2.00;1.73;;;22.00;99.90;;;;;;5039464;28;20179;-66
2022/05/18 06:28:43;;;;;;;2.97;2.10;;;22.00;99.90;;;;;;5039257;28;20227;-68
2022/05/18 06:31:11;;;;;;;2.65;2.08;;;22.10;99.90;;;;;;5031940;28;20309;-66
2022/05/18 06:33:36;;;;;;;3.95;1.85;;;22.10;99.90;;;;;;5025509;28;20277;-68
2022/05/18 06:36:03;;;;;;;2.33;1.67;;;22.10;99.90;;;;;;5038844;28;20283;-66
2022/05/18 06:38:29;;;;;;;4.15;1.92;;;22.10;99.90;;;;;;5038636;28;20284;-68
2022/05/18 06:43:43;;;;;;;2.47;2.03;;;22.20;99.90;;;;;;5036597;28;20184;-68
2022/05/18 06:46:13;;;;;;;3.88;2.10;;;22.30;99.90;;;;;;5027252;28;20195;-68
2022/05/18 06:48:42;;;;;;;3.25;1.95;;;22.40;99.90;;;;;;5038413;28;20215;-68
2022/05/18 06:51:08;;;;;;;3.38;1.67;;;22.50;99.90;;;;;;5038499;28;20197;-66
2022/05/18 06:53:36;;;;;;;3.67;2.00;;;22.50;99.90;;;;;;5038610;28;20203;-68
2022/05/18 06:56:02;;;;;;;2.22;1.63;;;22.60;99.90;;;;;;5038343;28;20197;-68
2022/05/18 06:58:30;;;;;;;2.78;1.80;;;22.60;99.90;;;;;;5038989;28;20215;-68
2022/05/18 07:00:56;;;;;;;2.30;1.70;;;22.70;99.90;;;;;;5045979;28;20181;-67
2022/05/18 07:03:24;;;;;;;2.40;1.80;;;22.70;99.90;;;;;;5036913;28;20265;-67
2022/05/18 07:05:50;;;;;;;2.05;1.60;;;22.80;99.90;;;;;;5036209;28;20224;-68
2022/05/18 07:08:16;;;;;;;3.50;1.80;;;22.90;99.90;;;;;;5036270;28;20222;-66
2022/05/18 07:10:42;;;;;;;1.98;1.58;;;23.00;99.90;;;;;;5033249;28;20178;-69
2022/05/18 07:13:07;;;;;;;2.88;2.00;;;23.00;99.90;;;;;;5028623;28;20193;-67
2022/05/18 07:15:33;;;;;;;4.10;1.75;;;23.10;99.90;;;;;;5034560;28;20421;-67
2022/05/18 07:17:59;;;;;;;2.22;1.63;;;23.10;99.90;;;;;;5029332;28;20174;-67
2022/05/18 07:20:27;;;;;;;2.22;1.60;;;23.20;99.90;;;;;;5034972;28;20420;-67
2022/05/18 07:22:55;;;;;;;2.08;1.88;;;23.30;99.90;;;;;;5037542;28;20178;-64
2022/05/18 07:25:20;;;;;;;2.65;1.83;;;23.40;99.90;;;;;;5036201;28;20216;-68
2022/05/18 07:27:46;;;;;;;2.40;1.90;;;23.50;99.90;;;;;;5034975;28;20216;-67
2022/05/18 07:30:15;;;;;;;2.33;1.50;;;23.50;99.90;;;;;;5027139;28;20231;-68
2022/05/18 07:32:41;;;;;;;3.80;1.75;;;23.60;99.90;;;;;;5034850;28;20201;-68
2022/05/18 07:35:07;;;;;;;3.35;1.42;;;23.70;99.90;;;;;;5032399;28;20176;-68
2022/05/18 07:37:33;;;;;;;2.40;1.70;;;23.80;99.90;;;;;;5036932;28;20197;-68
2022/05/18 07:39:59;;;;;;;2.85;1.85;;;23.90;99.90;;;;;;5047206;28;20181;-63
2022/05/18 07:42:27;;;;;;;2.00;1.60;;;24.00;99.90;;;;;;5027996;28;20206;-68
2022/05/18 07:44:52;;;;;;;1.90;1.63;;;24.00;99.90;;;;;;5046816;28;20177;-67
2022/05/18 07:47:27;;;;;;;2.97;1.88;;;24.10;99.90;;;;;;5030109;28;20197;-68
2022/05/18 07:49:53;;;;;;;2.72;2.30;;;24.20;99.90;;;;;;5018864;28;20232;-67
2022/05/18 07:52:18;;;;;;;2.05;1.73;;;24.20;99.90;;;;;;5033726;28;20185;-67
2022/05/18 07:54:47;;;;;;;3.47;2.13;;;24.30;99.90;;;;;;5037665;28;20185;-68
2022/05/18 07:57:12;;;;;;;3.60;1.88;;;24.40;99.90;;;;;;5054556;28;20239;-64
2022/05/18 07:59:38;;;;;;;4.25;2.13;;;24.40;99.90;;;;;;5031994;28;20216;-67
2022/05/18 08:02:04;;;;;;;4.03;1.60;;;24.50;99.90;;;;;;5017419;28;20271;-66
2022/05/18 08:04:30;;;;;;;2.83;1.67;;;24.50;99.90;;;;;;5054404;28;20388;-63
2022/05/18 08:06:55;;;;;;;2.00;1.70;;;24.60;99.90;;;;;;5027530;28;20174;-67
2022/05/18 08:09:22;;;;;;;2.10;1.60;;;24.70;99.90;;;;;;5035404;28;20197;-64
2022/05/18 08:15:05;;;;;;;2.78;1.55;;;24.80;99.90;;;;;;5051344;28;20343;-67
2022/05/18 08:17:19;;;;;;;1.58;1.48;;;24.90;99.90;;;;;;5053957;28;20204;-63
2022/05/18 08:19:49;;;;;;;1.83;1.33;;;24.90;99.90;;;;;;5026527;28;20170;-67
2022/05/18 08:22:17;;;;;;;1.95;1.50;;;25.00;99.90;;;;;;5036609;28;20181;-68
2022/05/18 08:24:43;;;;;;;2.70;1.98;;;25.10;99.90;;;;;;5035836;28;20194;-62
2022/05/18 08:27:17;;;;;;;3.03;1.90;;;25.20;99.90;;;;;;5023133;28;20197;-68
2022/05/18 08:29:43;;;;;;;2.78;1.70;;;25.20;99.90;;;;;;5036950;28;20278;-67
2022/05/18 08:32:08;;;;;;;2.30;1.45;;;25.30;99.90;;;;;;5036998;28;20213;-68
2022/05/18 08:34:34;;;;;;;1.60;1.50;;;25.40;99.90;;;;;;5042032;28;20165;-67
2022/05/18 08:37:00;;;;;;;4.60;1.70;;;25.40;99.90;;;;;;5036640;28;20307;-68
2022/05/18 08:39:26;;;;;;;3.25;1.77;;;25.50;99.90;;;;;;5019639;28;20197;-65
2022/05/18 08:41:56;;;;;;;2.70;1.95;;;25.60;99.90;;;;;;5036377;28;20165;-68
2022/05/18 08:44:28;;;;;;;2.53;1.50;;;25.60;99.90;;;;;;5036075;28;20268;-67
2022/05/18 08:47:34;;;;;;;2.22;1.52;;;25.70;99.90;;;;;;5031200;28;20317;-70
2022/05/18 08:50:14;;;;;;;2.58;1.70;;;25.80;99.90;;;;;;4956345;28;20192;-69
2022/05/18 08:53:10;;;;;;;2.35;1.52;;;25.80;99.90;;;;;;5030377;28;20265;-68
2022/05/18 08:55:42;;;;;;;2.55;1.60;;;25.90;99.90;;;;;;5035599;28;20173;-68
2022/05/18 08:58:15;;;;;;;3.08;1.60;;;26.00;99.90;;;;;;5036027;28;20173;-69
2022/05/18 09:01:15;;;;;;;2.15;1.63;;;26.10;99.90;;;;;;5036153;28;20188;-66
2022/05/18 09:04:08;;;;;;;3.17;1.70;;;26.20;99.90;;;;;;5026086;28;20213;-68
2022/05/18 09:06:39;;;;;;;5.25;1.80;;;26.30;99.90;;;;;;5014867;28;20185;-64
2022/05/18 09:12:02;;;;;;;3.20;1.48;;;26.50;99.90;;;;;;5052750;28;20236;-68
2022/05/18 09:14:37;;;;;;;2.15;1.63;;;26.60;99.90;;;;;;5035821;28;20272;-68
2022/05/18 09:17:40;;;;;;;3.90;1.70;;;26.60;99.90;;;;;;5035489;28;20250;-68
2022/05/18 09:20:15;;;;;;;3.80;1.83;;;26.70;99.90;;;;;;5029047;28;20189;-68
2022/05/18 09:22:55;;;;;;;2.88;1.80;;;26.90;99.90;;;;;;5035307;28;20173;-68
2022/05/18 09:25:43;;;;;;;2.20;1.60;;;27.00;99.90;;;;;;5042533;28;20192;-68
2022/05/18 09:28:27;;;;;;;1.83;1.58;;;27.00;99.90;;;;;;5033058;28;20170;-70
2022/05/18 09:31:08;;;;;;;2.28;1.67;;;27.10;99.90;;;;;;5021148;28;20261;-69
2022/05/18 09:34:07;;;;;;;2.35;1.90;;;27.10;99.90;;;;;;5022782;28;20183;-67
2022/05/18 09:36:42;;;;;;;2.15;1.60;;;27.30;99.90;;;;;;5021863;28;20217;-68
2022/05/18 09:39:17;;;;;;;2.80;1.70;;;27.30;99.90;;;;;;5028873;28;20188;-66
2022/05/18 09:41:52;;;;;;;2.85;1.67;;;27.40;99.90;;;;;;5035474;28;20204;-68
2022/05/18 09:44:27;;;;;;;4.63;1.77;;;27.50;99.90;;;;;;5034807;28;20181;-69
2022/05/18 09:46:55;;;;;;;3.78;1.92;;;27.60;99.90;;;;;;5035508;28;20209;-69
2022/05/18 09:49:29;;;;;;;2.72;1.70;;;27.60;99.90;;;;;;5035477;28;20181;-67
2022/05/18 09:52:01;;;;;;;2.40;1.80;;;27.70;99.90;;;;;;5024222;28;20182;-66
2022/05/18 09:54:30;;;;;;;2.67;1.80;;;27.80;99.90;;;;;;5033617;28;20261;-68
2022/05/18 09:57:08;;;;;;;1.70;1.60;;;27.80;99.90;;;;;;5023457;28;20200;-68
2022/05/18 09:59:39;;;;;;;3.28;1.80;;;27.90;99.90;;;;;;5023492;28;20275;-68
2022/05/18 10:07:51;;;;;;;3.63;2.15;;;28.20;99.90;;;;;;5042093;28;20243;-63
2022/05/18 10:10:20;;;;;;;2.65;1.70;;;28.30;99.90;;;;;;5039419;28;20283;-69
2022/05/18 10:13:00;;;;;;;2.58;1.40;;;28.40;99.90;;;;;;5056541;28;20199;-65
2022/05/18 10:15:35;;;;;;;3.08;1.63;;;28.50;99.90;;;;;;5025793;28;20181;-66
2022/05/18 10:18:22;;;;;;;4.10;1.70;;;28.60;99.90;;;;;;5047431;28;20308;-63
2022/05/18 10:21:20;;;;;;;2.08;1.65;;;28.70;99.90;;;;;;5049175;28;20208;-68
2022/05/18 10:23:46;;;;;;;3.35;1.73;;;28.90;97.60;;;;;;5037731;28;20177;-68
2022/05/18 10:26:25;;;;;;;2.28;1.45;;;29.00;99.80;;;;;;5038558;28;20204;-68
2022/05/18 10:29:08;;;;;;;2.20;1.50;;;29.20;98.50;;;;;;5041591;28;20185;-68
2022/05/18 10:31:42;;;;;;;2.30;1.33;;;29.50;98.60;;;;;;5037149;28;20180;-67
2022/05/18 10:34:18;;;;;;;1.85;1.50;;;29.70;99.50;;;;;;5043892;28;20324;-67
2022/05/18 10:36:53;;;;;;;1.58;1.30;;;30.00;97.40;;;;;;5039078;28;20200;-68
2022/05/18 10:39:34;;;;;;;2.53;1.52;;;30.30;97.00;;;;;;5038506;28;20200;-66
2022/05/18 10:42:10;;;;;;;2.83;1.30;;;30.50;96.10;;;;;;5038806;28;20230;-67
2022/05/18 10:44:36;;;;;;;2.58;1.50;;;30.80;97.30;;;;;;5038039;28;20200;-67
2022/05/18 10:47:29;;;;;;;3.88;2.10;;;31.00;96.10;;;;;;5038477;28;20185;-67
2022/05/18 10:50:25;;;;;;;2.67;1.50;;;31.20;92.00;;;;;;5010314;28;20197;-66
2022/05/18 10:53:13;;;;;;;3.45;1.45;;;31.40;91.30;;;;;;5045684;28;20170;-69
2022/05/18 10:56:14;;;;;;;2.97;1.20;;;31.50;87.80;;;;;;5035602;28;20180;-69
2022/05/18 10:58:43;;;;;;;2.22;1.30;;;31.60;90.90;;;;;;5052260;28;20342;-69
2022/05/18 11:01:15;;;;;;;3.05;1.35;;;31.60;91.60;;;;;;5037278;28;20259;-65
2022/05/18 11:03:53;;;;;;;1.95;1.27;;;31.70;90.30;;;;;;5037691;28;20343;-66
2022/05/18 11:06:41;;;;;;;1.92;1.50;;;31.70;89.50;;;;;;5036290;28;20188;-67
2022/05/18 11:09:30;;;;;;;1.55;1.40;;;31.90;86.60;;;;;;5044972;28;20211;-68
2022/05/18 11:12:12;;;;;;;4.78;1.83;;;32.00;84.80;;;;;;5038118;28;20208;-66
2022/05/18 11:14:50;;;;;;;1.90;1.20;;;32.10;81.00;;;;;;5036671;28;20176;-68
2022/05/18 11:17:19;;;;;;;2.05;1.25;;;32.10;84.80;;;;;;5035953;28;20196;-68
2022/05/18 11:20:02;;;;;;;1.70;1.40;;;32.30;85.90;;;;;;5036617;28;20256;-67
2022/05/18 11:22:59;;;;;;;2.28;1.38;;;32.40;82.60;;;;;;5035903;28;20212;-68
2022/05/18 11:26:01;;;;;;;7.45;1.80;;;32.50;77.10;;;;;;5036931;28;20192;-67
2022/05/18 11:28:51;;;;;;;4.18;1.33;;;32.50;73.70;;;;;;5031239;28;20196;-67
2022/05/18 11:31:26;;;;;;;2.20;1.40;;;32.60;78.00;;;;;;5033632;28;20211;-68
2022/05/18 11:34:04;;;;;;;3.63;1.50;;;32.70;77.30;;;;;;5050906;28;20252;-66
2022/05/18 11:36:53;;;;;;;1.73;1.20;;;32.70;69.50;;;;;;5037082;28;20520;-67
2022/05/18 11:39:33;;;;;;;1.90;1.23;;;32.80;72.10;;;;;;5038588;28;20323;-69
2022/05/18 11:42:23;;;;;;;2.33;1.23;;;32.90;71.50;;;;;;5052853;28;20207;-68
2022/05/18 11:45:11;;;;;;;2.28;1.30;;;32.90;71.90;;;;;;5034154;28;20390;-68
2022/05/18 11:47:51;;;;;;;1.50;1.10;;;32.90;75.00;;;;;;5050589;28;20188;-65
2022/05/18 11:50:30;;;;;;;1.55;1.25;;;32.90;73.30;;;;;;5031330;28;20255;-69
2022/05/18 11:53:13;;;;;;;2.22;1.40;;;32.90;73.60;;;;;;5034052;28;20199;-68
2022/05/18 11:55:56;;;;;;;3.10;1.25;;;32.90;66.00;;;;;;5045205;28;20180;-68
2022/05/18 11:58:54;;;;;;;2.03;1.20;;;32.80;72.40;;;;;;5030921;28;20217;-67
2022/05/18 12:01:40;;;;;;;1.75;1.35;;;32.90;62.50;;;;;;5035362;28;20226;-67
2022/05/18 12:04:34;;;;;;;2.13;1.35;;;33.00;67.00;;;;;;5035607;28;20224;-68
2022/05/18 12:07:29;;;;;;;2.47;1.20;;;33.10;67.70;;;;;;5039947;28;20211;-68
2022/05/18 12:10:20;;;;;;;1.98;1.23;;;33.20;66.70;;;;;;5035434;28;20296;-65
2022/05/18 12:13:07;;;;;;;3.00;1.30;;;33.30;66.60;;;;;;5033405;28;20180;-69
2022/05/18 12:15:57;;;;;;;1.75;1.20;;;33.40;62.20;;;;;;5029450;28;20181;-63
2022/05/18 12:19:13;;;;;;;2.75;1.30;;;33.50;62.00;;;;;;5034400;28;20181;-63
2022/05/18 12:21:41;;;;;;;1.70;1.42;;;33.50;61.90;;;;;;4955320;28;20200;-68
2022/05/18 12:24:09;;;;;;;2.42;1.55;;;33.60;65.50;;;;;;4955811;28;20190;-68
2022/05/18 12:26:40;;;;;;;2.83;1.50;;;33.60;65.30;;;;;;5009776;28;20227;-68
2022/05/18 12:29:07;;;;;;;1.50;1.30;;;33.70;63.50;;;;;;5034224;28;20258;-66
2022/05/18 12:31:38;;;;;;;2.17;1.50;;;33.70;65.10;;;;;;5033097;28;20464;-67
2022/05/18 12:34:20;;;;;;;1.75;1.17;;;33.80;64.00;;;;;;5034647;28;20184;-68
2022/05/18 12:37:13;;;;;;;1.85;1.20;;;33.90;58.40;;;;;;5030719;28;20205;-67
2022/05/18 12:39:48;;;;;;;1.90;1.20;;;34.00;61.00;;;;;;5048112;28;20264;-70
2022/05/18 12:42:27;;;;;;;1.30;1.20;;;34.10;61.10;;;;;;5035704;28;20180;-67
2022/05/18 12:44:59;;;;;;;1.90;1.05;;;34.20;61.00;;;;;;5031614;28;20408;-70
2022/05/18 12:47:38;;;;;;;1.83;1.00;;;34.20;62.40;;;;;;5034675;28;20204;-70
2022/05/18 12:50:17;;;;;;;1.30;1.10;;;34.30;61.10;;;;;;5049922;28;20195;-70
2022/05/18 12:53:02;;;;;;;1.75;1.10;;;34.40;59.60;;;;;;5033991;28;20238;-70
2022/05/18 12:55:38;;;;;;;5.63;1.27;;;34.40;56.30;;;;;;5049865;28;20268;-69
2022/05/18 12:58:10;;;;;;;1.83;1.40;;;34.40;58.40;;;;;;5031673;28;20286;-68
2022/05/18 13:00:41;;;;;;;1.58;1.10;;;34.50;59.10;;;;;;5050250;28;20178;-70
2022/05/18 13:03:10;;;;;;;1.42;0.98;;;34.50;59.80;;;;;;5032409;28;20203;-68
2022/05/18 13:05:41;;;;;;;1.65;1.20;;;34.60;58.70;;;;;;5034548;28;20199;-71
2022/05/18 13:08:18;;;;;;;1.92;1.20;;;34.70;59.00;;;;;;5034248;28;20231;-67
2022/05/18 13:11:25;;;;;;;1.60;1.20;;;34.70;57.20;;;;;;5031081;28;20176;-70
2022/05/18 13:14:06;;;;;;;1.50;1.10;;;34.80;57.10;;;;;;5032857;28;20263;-69
2022/05/18 13:16:37;;;;;;;2.40;1.20;;;34.80;56.80;;;;;;5034933;28;20192;-70
2022/05/18 13:19:24;;;;;;;1.20;1.10;;;34.90;57.10;;;;;;5035167;28;20333;-70
2022/05/18 13:22:13;;;;;;;3.08;1.20;;;35.00;55.90;;;;;;5024409;28;20187;-70
2022/05/18 13:24:57;;;;;;;1.48;1.20;;;34.90;54.40;;;;;;5032890;28;20209;-68
2022/05/18 13:27:31;;;;;;;2.45;1.50;;;35.00;55.20;;;;;;5047099;28;20188;-70
2022/05/18 13:30:04;;;;;;;1.40;1.20;;;34.90;54.90;;;;;;5037094;28;20201;-70
2022/05/18 13:32:34;;;;;;;3.63;1.50;;;34.90;57.60;;;;;;5023999;28;20200;-70